Time;durP1;ratioP1;P1;durP2;ratioP2;P2;SDS_P1;SDS_P2;PMS_P1;PMS_P2;Temp;Humidity;BMP_temperature;BMP_pressure;BME280_temperature;BME280_humidity;BME280_pressure;Samples;Min_cycle;Max_cycle;Signal;HPM_P1;HPM_P2
2022/08/14 00:00:26;;;;;;;7.22;3.80;;;;;;;15.54;78.38;99812.92;1681607;83;20978;-62
2022/08/14 00:02:55;;;;;;;9.18;3.47;;;;;;;15.50;78.37;99807.51;1668658;85;21896;-62
2022/08/14 00:05:21;;;;;;;10.55;3.92;;;;;;;15.45;78.33;99809.12;1666250;85;21471;-62
2022/08/14 00:07:49;;;;;;;6.47;2.92;;;;;;;15.39;78.30;99810.36;1674035;84;20946;-62
2022/08/14 00:10:18;;;;;;;;;;;;;;;15.32;78.42;99809.09;1673898;85;20910;-62
2022/08/14 00:12:50;;;;;;;13.85;3.33;;;;;;;15.27;78.69;99813.81;1676880;84;20107;-62
2022/08/14 00:15:28;;;;;;;8.90;3.02;;;;;;;15.23;78.74;99812.30;1669937;85;21082;-63
2022/08/14 00:17:55;;;;;;;11.38;3.35;;;;;;;15.17;78.71;99812.71;1671325;84;20927;-62
2022/08/14 00:20:27;;;;;;;6.53;2.62;;;;;;;15.13;78.89;99807.29;1676848;85;20914;-62
2022/08/14 00:22:54;;;;;;;4.55;2.85;;;;;;;15.13;79.31;99800.72;1670731;84;20943;-62
2022/08/14 00:25:20;;;;;;;9.08;3.60;;;;;;;15.15;79.35;99794.86;1679213;85;20982;-62
2022/08/14 00:27:47;;;;;;;7.47;3.33;;;;;;;15.18;79.71;99796.84;1672876;83;21069;-62
2022/08/14 00:30:15;;;;;;;6.22;3.42;;;;;;;15.23;79.92;99801.78;1678614;85;21474;-61
2022/08/14 00:32:43;;;;;;;6.22;2.83;;;;;;;15.24;79.94;99800.86;1667800;85;20870;-62
2022/08/14 00:35:10;;;;;;;7.05;2.80;;;;;;;15.21;79.84;99798.44;1671798;85;20995;-62
2022/08/14 00:37:40;;;;;;;6.55;3.02;;;;;;;15.16;80.20;99795.26;1672824;85;20933;-62
2022/08/14 00:40:10;;;;;;;8.00;3.37;;;;;;;15.18;80.35;99788.12;1682044;84;21151;-62
2022/08/14 00:42:38;;;;;;;12.15;3.62;;;;;;;15.26;80.87;99795.01;1693542;83;20952;-62
2022/08/14 00:45:08;;;;;;;8.18;2.72;;;;;;;15.33;80.89;99790.20;1692857;82;20961;-62
2022/08/14 00:47:35;;;;;;;4.75;2.58;;;;;;;15.36;80.80;99786.89;1700798;84;21644;-62
2022/08/14 00:50:06;;;;;;;9.55;3.60;;;;;;;15.33;80.56;99786.26;1685793;83;21016;-62
2022/08/14 00:52:34;;;;;;;4.90;2.52;;;;;;;15.27;80.57;99787.51;1698101;84;21082;-62
2022/08/14 00:55:01;;;;;;;7.50;2.60;;;;;;;15.25;80.62;99786.75;1687070;84;20931;-62
2022/08/14 00:57:31;;;;;;;4.15;2.70;;;;;;;15.19;80.54;99780.59;1701433;83;20969;-62
2022/08/14 00:59:59;;;;;;;6.83;2.87;;;;;;;15.16;80.64;99780.80;1697367;84;20954;-62
2022/08/14 01:02:26;;;;;;;3.92;2.33;;;;;;;15.11;80.79;99784.19;1701955;84;20945;-62
2022/08/14 01:04:57;;;;;;;5.58;2.25;;;;;;;15.09;80.97;99778.17;1697797;83;21035;-62
2022/08/14 01:07:28;;;;;;;7.60;3.05;;;;;;;15.05;80.92;99774.07;1691978;84;20885;-62
2022/08/14 01:10:00;;;;;;;8.70;2.75;;;;;;;15.05;81.16;99772.28;1693926;83;21436;-62
2022/08/14 01:12:28;;;;;;;9.40;3.22;;;;;;;15.07;81.35;99774.80;1701955;84;20921;-62
2022/08/14 01:14:57;;;;;;;5.80;3.10;;;;;;;15.08;81.42;99771.24;1695621;82;20946;-62
2022/08/14 01:21:02;;;;;;;5.30;3.00;;;;;;;15.07;81.43;99770.84;1690991;84;21483;-62
2022/08/14 01:22:40;;;;;;;5.72;3.30;;;;;;;15.00;81.63;99773.88;1683851;84;20921;-62
2022/08/14 01:25:07;;;;;;;5.77;2.83;;;;;;;14.97;81.69;99769.30;1697105;83;21008;-62
2022/08/14 01:27:34;;;;;;;5.65;2.65;;;;;;;14.94;81.61;99767.70;1677817;84;21304;-61
2022/08/14 01:30:02;;;;;;;5.45;2.50;;;;;;;14.88;81.51;99773.37;1671723;84;21658;-62
2022/08/14 01:32:29;;;;;;;4.87;2.60;;;;;;;14.80;81.40;99767.76;1686459;84;20961;-63
2022/08/14 01:34:57;;;;;;;6.20;3.00;;;;;;;14.76;81.53;99770.22;1676619;85;21482;-62
2022/08/14 01:37:24;;;;;;;5.83;2.72;;;;;;;14.70;81.74;99774.53;1670757;83;20916;-62
2022/08/14 01:39:51;;;;;;;;;;;;;;;14.66;81.75;99778.31;1673218;84;21005;-63
2022/08/14 01:42:18;;;;;;;8.68;3.27;;;;;;;14.63;82.01;99771.94;1662853;85;21103;-62
2022/08/14 01:44:51;;;;;;;;;;;;;;;14.62;82.25;99771.55;1671792;84;20887;-62
2022/08/14 01:47:17;;;;;;;5.55;2.62;;;;;;;14.61;82.62;99769.87;1690656;85;20088;-62
2022/08/14 01:49:45;;;;;;;6.05;3.27;;;;;;;14.61;82.51;99771.18;1672666;85;20946;-62
2022/08/14 01:52:11;;;;;;;10.05;3.00;;;;;;;14.62;82.74;99768.47;1678986;84;21393;-62
2022/08/14 01:54:38;;;;;;;4.72;2.98;;;;;;;14.68;82.98;99768.55;1661836;85;21121;-62
2022/08/14 01:57:10;;;;;;;7.92;3.35;;;;;;;14.73;83.06;99769.08;1670181;85;20958;-63
2022/08/14 01:59:39;;;;;;;8.05;3.02;;;;;;;14.72;82.92;99765.61;1690537;84;21492;-62
2022/08/14 02:02:12;;;;;;;7.33;2.62;;;;;;;14.70;82.81;99767.95;1690555;85;20941;-62
2022/08/14 02:04:39;;;;;;;6.65;2.67;;;;;;;14.65;82.73;99760.87;1688401;84;20973;-62
2022/08/14 02:07:08;;;;;;;4.95;2.70;;;;;;;14.62;82.79;99766.28;1686850;85;21499;-62
2022/08/14 02:09:37;;;;;;;6.55;2.35;;;;;;;14.55;82.67;99766.68;1690524;85;20911;-62
2022/08/14 02:12:07;;;;;;;3.92;2.40;;;;;;;14.49;82.74;99761.78;1690578;84;20965;-62
2022/08/14 02:14:34;;;;;;;10.88;2.85;;;;;;;14.45;82.86;99761.62;1682550;85;20899;-62
2022/08/14 02:17:03;;;;;;;6.97;2.87;;;;;;;14.46;83.11;99764.61;1672559;84;20926;-62
2022/08/14 02:19:30;;;;;;;4.80;2.98;;;;;;;14.46;83.22;99759.35;1690642;84;21026;-62
2022/08/14 02:21:59;;;;;;;6.10;3.25;;;;;;;14.46;83.39;99758.04;1673730;84;20947;-62
2022/08/14 02:24:29;;;;;;;6.70;2.55;;;;;;;14.50;83.58;99755.58;1690559;84;20922;-62
2022/08/14 02:26:59;;;;;;;5.67;2.50;;;;;;;14.51;83.67;99755.97;1669327;85;20907;-62
2022/08/14 02:29:29;;;;;;;3.10;2.50;;;;;;;14.52;83.60;99752.42;1668586;84;20954;-62
2022/08/14 02:31:58;;;;;;;11.12;3.15;;;;;;;14.50;83.70;99752.11;1681190;84;21092;-62
2022/08/14 02:34:30;;;;;;;6.92;2.60;;;;;;;14.49;83.72;99745.19;1653407;85;20950;-62
2022/08/14 02:37:01;;;;;;;8.88;2.87;;;;;;;14.46;83.77;99740.97;1658479;85;20902;-62
2022/08/14 02:39:33;;;;;;;6.20;3.10;;;;;;;14.46;83.94;99737.02;1670179;85;21464;-62
2022/08/14 02:42:00;;;;;;;9.50;3.00;;;;;;;14.44;83.91;99737.58;1659125;85;21017;-62
2022/08/14 02:44:26;;;;;;;6.30;3.15;;;;;;;14.39;83.88;99737.50;1625479;87;21262;-62
2022/08/14 02:46:56;;;;;;;7.17;2.58;;;;;;;14.35;83.99;99739.48;1662876;84;20974;-62
2022/08/14 02:49:27;;;;;;;3.75;2.50;;;;;;;14.34;83.96;99736.49;1674651;85;20922;-62
2022/08/14 02:51:57;;;;;;;7.22;3.22;;;;;;;14.28;83.84;99736.84;1676666;84;20906;-62
2022/08/14 02:54:25;;;;;;;5.65;3.02;;;;;;;14.26;84.13;99738.75;1676468;83;20953;-62
2022/08/14 02:56:54;;;;;;;8.55;2.72;;;;;;;14.27;84.46;99735.17;1679678;83;21107;-62
2022/08/14 02:59:23;;;;;;;5.78;2.60;;;;;;;14.28;84.47;99732.91;1681108;84;20958;-62
2022/08/14 03:01:52;;;;;;;5.62;2.50;;;;;;;14.24;84.33;99735.37;1657836;84;20899;-62
2022/08/14 03:04:18;;;;;;;3.15;2.30;;;;;;;14.20;84.22;99736.48;1682646;85;20965;-62
2022/08/14 03:06:47;;;;;;;4.22;2.22;;;;;;;14.15;84.14;99732.01;1675544;84;20883;-62
2022/08/14 03:09:14;;;;;;;5.47;3.15;;;;;;;14.09;84.15;99730.12;1679844;83;21788;-61
2022/08/14 03:11:43;;;;;;;4.67;2.22;;;;;;;14.06;84.33;99736.88;1665566;85;20896;-61
2022/08/14 03:14:11;;;;;;;7.60;3.15;;;;;;;14.08;84.53;99735.46;1680326;84;21641;-62
2022/08/14 03:16:40;;;;;;;6.80;2.60;;;;;;;14.08;84.80;99738.92;1662093;85;20971;-62
2022/08/14 03:19:08;;;;;;;8.43;2.67;;;;;;;14.12;84.91;99734.83;1661141;85;21464;-62
2022/08/14 03:21:38;;;;;;;7.35;2.50;;;;;;;14.13;84.83;99737.81;1657028;85;21695;-62
2022/08/14 03:24:11;;;;;;;7.40;2.50;;;;;;;14.15;84.91;99732.01;1669004;84;20958;-62
2022/08/14 03:26:41;;;;;;;3.50;2.40;;;;;;;14.14;84.88;99734.23;1670983;85;20922;-62
2022/08/14 03:29:09;;;;;;;3.58;2.30;;;;;;;14.12;84.71;99733.04;1666454;84;20930;-62
2022/08/14 03:31:39;;;;;;;7.05;2.35;;;;;;;14.10;84.79;99723.93;1693950;84;20902;-62
2022/08/14 03:34:04;;;;;;;4.72;2.27;;;;;;;14.13;84.92;99729.94;1683197;83;20967;-62
2022/08/14 03:36:31;;;;;;;5.17;2.97;;;;;;;14.19;85.14;99723.83;1675975;84;20961;-62
2022/08/14 03:38:58;;;;;;;6.45;2.65;;;;;;;14.29;85.51;99728.05;1678604;84;21632;-62
2022/08/14 03:41:26;;;;;;;;;;;;;;;14.39;85.51;99727.83;1684130;83;20942;-62
2022/08/14 03:44:00;;;;;;;4.40;3.02;;;;;;;14.60;86.29;99732.24;1671780;84;20089;-62
2022/08/14 03:46:30;;;;;;;9.48;2.90;;;;;;;15.18;86.88;99726.31;1670190;84;21905;-62
2022/08/14 03:49:01;;;;;;;10.23;2.90;;;;;;;15.87;86.74;99721.17;1698145;84;20926;-62
2022/08/14 03:51:27;;;;;;;5.55;2.87;;;;;;;16.53;86.04;99720.97;1682282;83;20957;-62
2022/08/14 03:53:56;;;;;;;5.95;2.75;;;;;;;17.17;85.61;99718.91;1675776;83;21036;-62
2022/08/14 03:56:25;;;;;;;5.50;2.25;;;;;;;17.90;85.59;99716.94;1682292;84;21005;-63
2022/08/14 03:58:56;;;;;;;3.55;2.10;;;;;;;18.58;85.07;99720.84;1688682;83;21937;-63
2022/08/14 04:01:25;;;;;;;4.90;2.05;;;;;;;19.16;84.29;99712.14;1669840;84;20906;-63
2022/08/14 04:04:04;;;;;;;8.93;2.10;;;;;;;19.96;84.28;99708.05;1670539;84;20946;-63
2022/08/14 04:06:27;;;;;;;6.80;2.42;;;;;;;20.73;84.06;99702.98;1670257;84;20949;-63
2022/08/14 04:08:53;;;;;;;4.62;2.20;;;;;;;21.56;83.56;99697.23;1673755;84;20970;-63
2022/08/14 04:11:20;;;;;;;7.97;2.37;;;;;;;22.33;83.11;99697.45;1672347;84;25283;-63
2022/08/14 04:13:48;;;;;;;6.10;2.00;;;;;;;22.96;81.93;99694.80;1674456;84;20894;-63
2022/08/14 04:16:19;;;;;;;6.85;2.10;;;;;;;23.54;81.31;99697.42;1680079;84;20934;-63
2022/08/14 04:18:51;;;;;;;8.43;2.02;;;;;;;23.97;79.99;99692.19;1673769;84;20926;-63
2022/08/14 04:21:21;;;;;;;6.83;2.45;;;;;;;24.27;79.22;99688.16;1690437;84;20928;-63
2022/08/14 04:23:47;;;;;;;3.92;2.15;;;;;;;24.61;78.61;99688.11;1664853;85;21065;-63
2022/08/14 04:26:17;;;;;;;8.65;2.05;;;;;;;25.03;78.78;99687.16;1670302;84;21495;-64
2022/08/14 04:28:44;;;;;;;5.83;2.52;;;;;;;25.55;78.09;99688.67;1689508;84;20876;-64
2022/08/14 04:31:12;;;;;;;3.85;1.70;;;;;;;25.95;77.28;99685.06;1664314;85;21462;-63
2022/08/14 04:33:39;;;;;;;4.58;1.67;;;;;;;26.49;76.71;99686.48;1642624;86;21009;-64
2022/08/14 04:36:05;;;;;;;;;;;;;;;26.85;75.79;99683.78;1648310;86;21111;-63
2022/08/14 04:44:03;;;;;;;4.17;1.65;;;;;;;28.02;74.12;99673.48;1660248;86;21445;-61
2022/08/14 04:46:33;;;;;;;6.72;2.10;;;;;;;28.60;74.22;99670.39;1644682;86;20985;-61
2022/08/14 04:49:00;;;;;;;7.80;1.95;;;;;;;29.00;72.42;99666.73;1658349;85;21918;-61
2022/08/14 04:51:28;;;;;;;6.85;2.25;;;;;;;29.21;71.86;99664.06;1662344;84;21556;-63
2022/08/14 04:53:55;;;;;;;5.37;1.82;;;;;;;29.44;70.56;99671.05;1640750;86;21536;-62
2022/08/14 04:56:25;;;;;;;3.98;1.80;;;;;;;29.66;70.03;99661.92;1643746;86;21867;-63
2022/08/14 04:58:57;;;;;;;8.78;1.65;;;;;;;29.73;69.00;99663.81;1648721;85;20926;-62
2022/08/14 05:01:25;;;;;;;5.42;2.10;;;;;;;30.04;69.31;99661.47;1648473;85;23560;-62
2022/08/14 05:03:53;;;;;;;19.25;2.75;;;;;;;30.48;68.31;99662.09;1665138;85;21010;-61
2022/08/14 05:06:20;;;;;;;5.25;1.85;;;;;;;30.97;67.79;99660.93;1663627;85;20991;-61
2022/08/14 05:08:47;;;;;;;10.05;2.02;;;;;;;31.39;67.26;99667.79;1622353;87;20988;-63
2022/08/14 05:11:18;;;;;;;9.75;2.20;;;;;;;31.69;66.30;99664.63;1629530;86;21077;-62
2022/08/14 05:13:45;;;;;;;8.38;1.98;;;;;;;32.03;66.01;99662.16;1648172;86;21091;-62
2022/08/14 05:16:12;;;;;;;3.30;1.95;;;;;;;32.78;63.55;99660.77;1641770;86;20895;-62
2022/08/14 05:18:39;;;;;;;9.00;2.47;;;;;;;32.78;63.55;99660.77;1661335;86;20965;-62
2022/08/14 05:21:08;;;;;;;9.55;2.42;;;;;;;32.72;62.66;99659.23;1639446;87;20937;-62
2022/08/14 05:23:38;;;;;;;4.58;2.12;;;;;;;32.96;62.24;99658.11;1635044;87;20971;-62
2022/08/14 05:26:11;;;;;;;13.78;2.67;;;;;;;33.29;61.79;99658.39;1669376;85;21106;-62
2022/08/14 05:28:35;;;;;;;10.10;3.12;;;;;;;33.26;60.00;99656.14;1651830;86;20974;-61
2022/08/14 05:31:06;;;;;;;9.60;3.35;;;;;;;33.46;60.97;99651.35;1647426;85;21119;-62
2022/08/14 05:33:35;;;;;;;7.05;3.17;;;;;;;33.89;60.46;99657.28;1663919;85;21562;-62
2022/08/14 05:36:06;;;;;;;7.70;2.70;;;;;;;34.15;59.27;99663.46;1625269;87;20970;-62
2022/08/14 05:38:36;;;;;;;8.40;2.90;;;;;;;33.98;57.86;99662.69;1667108;84;21947;-61
2022/08/14 05:41:05;;;;;;;5.70;2.90;;;;;;;33.52;56.61;99655.89;1660209;85;21024;-62
2022/08/14 05:43:32;;;;;;;8.20;3.20;;;;;;;33.13;55.80;99651.13;1677016;83;20954;-61
2022/08/14 05:46:00;;;;;;;8.00;3.35;;;;;;;32.68;54.76;99655.30;1675187;85;21570;-62
2022/08/14 05:48:28;;;;;;;8.98;2.87;;;;;;;32.44;53.31;99661.47;1663930;84;21529;-62
2022/08/14 05:50:55;;;;;;;9.38;3.15;;;;;;;32.03;51.08;99657.29;1680232;85;21499;-61
2022/08/14 05:53:24;;;;;;;6.37;2.77;;;;;;;31.38;52.36;99660.75;1665896;84;20905;-61
2022/08/14 05:55:51;;;;;;;7.58;3.08;;;;;;;31.22;51.92;99657.09;1692830;84;20926;-61
2022/08/14 05:58:19;;;;;;;6.90;3.45;;;;;;;31.46;52.86;99653.48;1685451;83;20958;-62
2022/08/14 06:00:46;;;;;;;13.93;2.83;;;;;;;31.86;52.36;99652.33;1693286;83;20890;-61
2022/08/14 06:03:16;;;;;;;13.93;3.12;;;;;;;32.17;51.32;99653.48;1694212;83;21105;-62
2022/08/14 06:05:45;;;;;;;7.45;2.67;;;;;;;32.33;51.70;99652.99;1684475;84;20954;-62
2022/08/14 06:08:27;;;;;;;9.45;2.87;;;;;;;32.39;51.39;99657.23;1701440;84;20882;-62
2022/08/14 06:11:02;;;;;;;7.15;2.37;;;;;;;32.50;50.23;99655.22;1691469;84;20925;-64
2022/08/14 06:13:31;;;;;;;10.50;2.27;;;;;;;32.50;50.23;99655.22;1658085;85;20972;-64
2022/08/14 06:15:58;;;;;;;14.80;3.40;;;;;;;32.22;48.42;99659.08;1669763;85;21475;-62
2022/08/14 06:18:25;;;;;;;7.20;2.98;;;;;;;31.93;49.48;99659.59;1665810;85;20985;-62
2022/08/14 06:20:52;;;;;;;14.23;2.67;;;;;;;32.01;49.11;99662.06;1677068;85;21045;-62
2022/08/14 06:23:19;;;;;;;6.35;2.40;;;;;;;31.88;48.65;99661.05;1660148;85;20989;-61
2022/08/14 06:25:45;;;;;;;8.05;2.55;;;;;;;31.51;47.88;99669.84;1660709;85;20890;-62
2022/08/14 06:28:21;;;;;;;6.17;2.55;;;;;;;31.15;47.61;99658.98;1657741;85;21085;-62
2022/08/14 06:30:49;;;;;;;9.00;2.75;;;;;;;30.86;47.27;99662.37;1626826;86;20941;-61
2022/08/14 06:33:17;;;;;;;8.00;2.37;;;;;;;30.60;47.55;99660.97;1607142;87;21495;-62
2022/08/14 06:35:45;;;;;;;7.92;2.92;;;;;;;30.65;47.29;99663.88;1646796;86;21002;-61
2022/08/14 06:38:19;;;;;;;7.78;2.70;;;;;;;30.56;47.05;99663.25;1653938;86;20955;-61
2022/08/14 06:40:47;;;;;;;9.40;2.60;;;;;;;30.50;47.06;99662.20;1645279;86;21043;-61
2022/08/14 06:43:16;;;;;;;10.78;2.58;;;;;;;30.44;46.79;99652.20;1652411;86;20993;-62
2022/08/14 06:45:45;;;;;;;6.67;2.45;;;;;;;30.29;46.89;99665.02;1623149;87;20913;-61
2022/08/14 06:48:22;;;;;;;9.08;2.50;;;;;;;30.35;46.97;99658.00;1643000;86;20924;-61
2022/08/14 06:50:51;;;;;;;9.00;2.00;;;;;;;30.17;46.60;99656.67;1646286;85;21005;-61
2022/08/14 06:53:18;;;;;;;7.45;2.40;;;;;;;30.21;46.57;99655.75;1636991;86;21971;-61
2022/08/14 06:55:47;;;;;;;5.50;2.22;;;;;;;30.11;46.36;99655.62;1647059;86;22023;-62
2022/08/14 06:58:16;;;;;;;7.47;2.60;;;;;;;30.16;46.05;99644.74;1646509;86;21508;-62
2022/08/14 07:06:14;;;;;;;4.65;2.05;;;;;;;30.62;46.23;99638.70;1636627;87;21259;-62
2022/08/14 07:08:42;;;;;;;7.67;1.85;;;;;;;30.57;45.68;99647.38;1638594;86;21053;-62
2022/08/14 07:11:10;;;;;;;4.03;1.80;;;;;;;30.37;45.33;99644.64;1642740;86;20953;-62
2022/08/14 07:13:37;;;;;;;14.65;2.37;;;;;;;30.09;45.11;99642.03;1637225;86;21130;-62
2022/08/14 07:16:04;;;;;;;5.05;2.10;;;;;;;29.76;44.74;99640.54;1662317;84;20950;-62
2022/08/14 07:18:34;;;;;;;8.90;2.45;;;;;;;29.53;44.89;99637.58;1630935;86;21849;-62
2022/08/14 07:21:03;;;;;;;6.20;2.10;;;;;;;29.38;44.77;99635.02;1647546;86;20932;-62
2022/08/14 07:23:30;;;;;;;5.22;1.95;;;;;;;29.22;44.57;99648.23;1654896;86;20903;-62
2022/08/14 07:26:00;;;;;;;5.85;2.30;;;;;;;28.72;44.67;99633.09;1627926;86;21457;-62
2022/08/14 07:28:32;;;;;;;10.10;2.15;;;;;;;28.18;44.48;99629.52;1657615;86;20957;-62
2022/08/14 07:31:01;;;;;;;7.60;2.10;;;;;;;27.76;45.02;99637.21;1657548;84;21092;-61
2022/08/14 07:33:33;;;;;;;5.17;2.00;;;;;;;27.51;44.72;99631.80;1670723;84;20972;-61
2022/08/14 07:36:03;;;;;;;7.72;1.80;;;;;;;27.05;44.44;99634.05;1675017;84;20977;-61
2022/08/14 07:38:32;;;;;;;3.92;1.82;;;;;;;26.62;44.50;99624.87;1658195;85;20913;-62
2022/08/14 07:41:00;;;;;;;7.30;2.45;;;;;;;26.31;44.77;99633.73;1672281;85;21119;-62
2022/08/14 07:43:26;;;;;;;8.30;2.17;;;;;;;26.11;44.84;99631.50;1669434;84;20957;-62
2022/08/14 07:45:53;;;;;;;5.97;2.40;;;;;;;25.93;45.00;99633.58;1677170;84;20976;-62
2022/08/14 07:48:20;;;;;;;;;;;;;;;25.79;45.47;99624.41;1674727;84;20906;-61
2022/08/14 07:50:49;;;;;;;5.35;1.90;;;;;;;25.83;45.87;99627.63;1691619;83;20701;-62
2022/08/14 07:53:17;;;;;;;2.80;1.80;;;;;;;25.84;45.96;99637.30;1701705;84;21443;-62
2022/08/14 07:55:47;;;;;;;5.40;2.00;;;;;;;25.87;46.16;99642.30;1692163;84;21482;-61
2022/08/14 07:58:16;;;;;;;4.33;2.02;;;;;;;25.90;46.30;99639.27;1699673;82;20964;-62
2022/08/14 08:00:43;;;;;;;4.92;2.20;;;;;;;25.88;46.54;99635.96;1689099;84;20949;-62
2022/08/14 08:03:11;;;;;;;5.05;2.08;;;;;;;25.86;46.65;99631.28;1693523;84;20969;-61
2022/08/14 08:05:40;;;;;;;13.53;2.25;;;;;;;25.91;46.74;99624.91;1668852;85;20986;-62
2022/08/14 08:08:09;;;;;;;5.30;2.02;;;;;;;25.96;46.79;99615.84;1673490;84;21051;-62
2022/08/14 08:10:38;;;;;;;3.05;1.80;;;;;;;26.00;47.03;99629.20;1666442;85;20929;-62
2022/08/14 08:13:18;;;;;;;4.40;2.02;;;;;;;26.09;46.82;99632.67;1672569;84;21005;-62
2022/08/14 08:15:52;;;;;;;2.70;1.72;;;;;;;26.09;46.67;99630.83;1670587;85;21495;-62
2022/08/14 08:18:20;;;;;;;3.15;1.70;;;;;;;26.04;46.61;99619.81;1670887;84;21032;-62
2022/08/14 08:20:51;;;;;;;9.50;2.30;;;;;;;26.14;46.18;99612.09;1660143;84;21195;-62
2022/08/14 08:23:19;;;;;;;4.17;1.52;;;;;;;26.10;46.24;99621.81;1660982;84;20977;-62
2022/08/14 08:25:49;;;;;;;4.40;2.00;;;;;;;26.17;46.00;99618.43;1670766;84;20922;-62
2022/08/14 08:28:23;;;;;;;5.10;1.80;;;;;;;26.24;45.69;99614.02;1660593;85;21535;-62
2022/08/14 08:30:57;;;;;;;7.08;2.40;;;;;;;26.25;45.67;99617.05;1673856;84;21521;-62
2022/08/14 08:33:31;;;;;;;4.70;1.77;;;;;;;26.20;45.35;99615.41;1651240;85;21073;-62
2022/08/14 08:36:04;;;;;;;19.42;2.67;;;;;;;26.35;45.33;99616.30;1658267;85;20985;-62
2022/08/14 08:38:31;;;;;;;8.50;1.90;;;;;;;26.41;45.14;99615.61;1667297;84;20935;-62
2022/08/14 08:41:00;;;;;;;2.55;1.30;;;;;;;26.35;44.68;99608.27;1673115;85;20967;-62
2022/08/14 08:43:34;;;;;;;6.95;1.92;;;;;;;26.32;44.62;99611.30;1690130;84;20977;-62
2022/08/14 08:46:07;;;;;;;1.98;1.30;;;;;;;26.36;44.54;99605.94;1692807;84;21053;-62
2022/08/14 08:48:48;;;;;;;5.85;1.90;;;;;;;26.51;44.41;99602.84;1705327;82;20957;-62
2022/08/14 08:51:41;;;;;;;1.98;1.52;;;;;;;26.55;43.98;99599.29;1672512;84;20897;-62
2022/08/14 08:54:08;;;;;;;5.30;1.95;;;;;;;26.52;44.15;99601.84;1691522;84;20952;-62
2022/08/14 08:56:47;;;;;;;4.15;1.75;;;;;;;26.56;43.74;99615.70;1697080;84;21028;-61
2022/08/14 08:59:27;;;;;;;9.93;2.30;;;;;;;26.49;43.84;99611.52;1661316;84;21205;-62
2022/08/14 09:02:06;;;;;;;4.15;1.72;;;;;;;26.52;43.67;99607.20;1676143;85;20985;-62
2022/08/14 09:04:44;;;;;;;6.08;1.87;;;;;;;26.48;43.67;99605.84;1677052;85;20957;-61
2022/08/14 09:07:09;;;;;;;4.72;1.85;;;;;;;26.44;43.80;99604.55;1660389;85;20922;-62
2022/08/14 09:09:50;;;;;;;3.17;1.80;;;;;;;26.50;43.95;99610.55;1669531;85;20893;-62
2022/08/14 09:12:06;;;;;;;2.50;1.42;;;;;;;26.56;43.82;99611.17;1662267;84;20985;-62
2022/08/14 09:14:33;;;;;;;4.78;1.60;;;;;;;26.58;43.78;99592.75;1677147;84;21410;-62
2022/08/14 09:17:00;;;;;;;3.10;1.52;;;;;;;26.54;43.55;99599.80;1705721;82;20910;-61
2022/08/14 09:19:27;;;;;;;6.20;1.82;;;;;;;26.44;43.45;99591.16;1691447;84;28097;-60
2022/08/14 09:21:54;;;;;;;4.37;1.80;;;;;;;26.36;43.46;99585.86;1705698;84;20980;-62
2022/08/14 09:24:21;;;;;;;3.47;1.87;;;;;;;26.36;43.76;99580.52;1702426;84;21509;-61
2022/08/14 09:26:47;;;;;;;;;;;;;;;26.38;43.56;99583.81;1707610;83;20946;-61
2022/08/14 09:29:14;;;;;;;2.67;1.60;;;;;;;26.40;43.57;99576.45;1703555;83;20438;-62
2022/08/14 09:31:44;;;;;;;6.17;2.62;;;;;;;26.38;43.41;99579.80;1704327;82;20989;-62
2022/08/14 09:34:49;;;;;;;5.95;1.82;;;;;;;26.35;43.51;99573.47;1673951;85;21452;-62
2022/08/14 09:37:48;;;;;;;2.65;1.47;;;;;;;26.39;43.60;99574.80;1681644;85;21190;-62
2022/08/14 09:40:36;;;;;;;88.07;7.62;;;;;;;26.48;43.68;99570.22;1660823;84;20960;-62
2022/08/14 09:43:20;;;;;;;3.62;1.65;;;;;;;26.56;43.57;99577.70;1678561;85;20857;-61
2022/08/14 09:45:48;;;;;;;2.08;1.35;;;;;;;26.59;43.25;99571.67;1682239;85;20961;-62
2022/08/14 09:48:21;;;;;;;2.72;1.40;;;;;;;26.58;43.01;99555.27;1684978;84;20975;-61
2022/08/14 09:50:55;;;;;;;3.47;1.57;;;;;;;26.67;43.19;99558.22;1681775;84;20979;-61
2022/08/14 09:53:42;;;;;;;4.92;1.90;;;;;;;26.66;43.17;99545.83;1679408;84;20924;-62
2022/08/14 09:56:08;;;;;;;4.13;1.80;;;;;;;26.77;42.98;99566.81;1678264;85;21416;-62
2022/08/14 09:58:39;;;;;;;3.65;1.62;;;;;;;26.69;42.75;99555.69;1676759;85;20943;-61
2022/08/14 10:01:14;;;;;;;3.60;1.70;;;;;;;26.70;42.97;99547.14;1680866;84;20943;-61
2022/08/14 10:03:49;;;;;;;4.40;1.42;;;;;;;26.74;43.30;99552.45;1682188;85;21123;-61
2022/08/14 10:06:19;;;;;;;5.53;2.10;;;;;;;26.97;42.99;99557.27;1663107;85;20985;-62
2022/08/14 10:09:00;;;;;;;7.03;1.60;;;;;;;26.89;42.85;99557.35;1681363;85;21468;-62
2022/08/14 10:11:34;;;;;;;3.58;1.60;;;;;;;26.89;42.86;99553.33;1680006;85;20897;-61
2022/08/14 10:14:18;;;;;;;5.20;1.50;;;;;;;26.85;42.54;99542.64;1682786;84;20944;-61
2022/08/14 10:16:52;;;;;;;3.02;1.42;;;;;;;26.71;42.27;99556.83;1682000;85;21067;-62
2022/08/14 10:19:20;;;;;;;1.30;1.20;;;;;;;26.55;41.99;99555.97;1658560;85;20957;-62
2022/08/14 10:22:09;;;;;;;1.82;1.47;;;;;;;26.47;42.32;99539.94;1668680;85;20938;-62
2022/08/14 10:24:45;;;;;;;2.33;1.57;;;;;;;26.64;42.27;99536.65;1682653;84;20933;-62
2022/08/14 10:27:25;;;;;;;2.00;1.40;;;;;;;26.68;42.29;99531.75;1682914;85;20976;-62
2022/08/14 10:29:59;;;;;;;2.95;1.60;;;;;;;26.77;42.22;99519.95;1683814;83;21033;-62
2022/08/14 10:32:27;;;;;;;2.65;1.40;;;;;;;26.80;42.14;99518.23;1669321;84;20940;-62
2022/08/14 10:35:09;;;;;;;3.12;1.70;;;;;;;26.85;41.82;99526.56;1674050;85;20886;-61
2022/08/14 10:37:45;;;;;;;10.90;1.98;;;;;;;26.75;41.90;99516.13;1678274;85;20994;-62
2022/08/14 10:40:14;;;;;;;5.10;1.50;;;;;;;26.84;41.88;99525.42;1658803;85;20934;-62
2022/08/14 10:42:42;;;;;;;4.25;1.80;;;;;;;26.82;41.46;99508.18;1678200;85;21872;-62
2022/08/14 10:45:25;;;;;;;5.35;1.60;;;;;;;26.74;41.53;99506.41;1678175;85;20972;-61
2022/08/14 10:47:52;;;;;;;3.33;1.60;;;;;;;26.79;41.73;99511.23;1658419;85;21849;-62
2022/08/14 10:50:35;;;;;;;3.30;1.40;;;;;;;26.90;41.76;99514.80;1678161;85;20949;-62
2022/08/14 10:53:05;;;;;;;4.42;1.52;;;;;;;27.08;41.75;99506.91;1678323;85;21404;-62
2022/08/14 10:55:40;;;;;;;2.17;1.60;;;;;;;27.10;41.53;99507.56;1678219;84;21048;-62
2022/08/14 10:58:12;;;;;;;5.05;2.00;;;;;;;27.05;41.44;99515.31;1672298;85;21451;-61
2022/08/14 11:00:41;;;;;;;3.10;1.57;;;;;;;27.07;41.66;99507.94;1678160;84;20949;-61
2022/08/14 11:03:13;;;;;;;2.72;1.62;;;;;;;27.14;41.75;99498.13;1660345;85;20975;-62
2022/08/14 11:05:47;;;;;;;2.67;2.08;;;;;;;27.20;41.58;99506.82;1693260;84;20930;-62
2022/08/14 11:08:20;;;;;;;2.85;1.55;;;;;;;27.06;41.75;99499.58;1680487;84;21034;-62
2022/08/14 11:10:54;;;;;;;3.42;1.82;;;;;;;27.03;41.65;99485.19;1699761;84;20949;-61
2022/08/14 11:13:26;;;;;;;2.58;1.80;;;;;;;26.91;41.89;99496.36;1699231;84;21550;-61
2022/08/14 11:15:55;;;;;;;2.75;1.57;;;;;;;26.94;42.10;99506.73;1699784;84;20910;-62
2022/08/14 11:18:23;;;;;;;5.70;1.77;;;;;;;27.05;42.10;99502.75;1699786;83;21003;-62
2022/08/14 11:20:55;;;;;;;4.62;1.82;;;;;;;27.12;42.26;99492.97;1699782;83;21888;-62
2022/08/14 11:23:27;;;;;;;3.90;1.70;;;;;;;27.20;42.30;99487.55;1699517;83;20929;-61
2022/08/14 11:25:56;;;;;;;3.45;1.80;;;;;;;27.25;42.34;99486.97;1698645;84;22211;-62
2022/08/14 11:28:30;;;;;;;6.25;1.80;;;;;;;27.19;42.29;99489.05;1698849;83;20957;-61
2022/08/14 11:30:58;;;;;;;5.03;2.30;;;;;;;27.19;42.51;99478.34;1697207;83;20882;-62
2022/08/14 11:33:33;;;;;;;10.88;2.08;;;;;;;27.23;42.67;99477.79;1644041;85;22066;-61
2022/08/14 11:36:01;;;;;;;3.60;1.80;;;;;;;27.44;42.90;99478.34;1697882;84;20967;-62
2022/08/14 11:38:38;;;;;;;5.72;2.05;;;;;;;27.54;42.96;99477.25;1699736;84;20974;-62
2022/08/14 11:41:05;;;;;;;4.10;2.37;;;;;;;27.56;42.90;99485.91;1698859;82;21540;-62
2022/08/14 11:43:31;;;;;;;7.67;1.90;;;;;;;27.38;43.00;99478.28;1699812;84;20979;-62
2022/08/14 11:45:59;;;;;;;;;;;;;;;27.40;43.40;99485.13;1702307;84;21852;-62
2022/08/14 11:48:27;;;;;;;8.68;2.30;;;;;;;27.47;43.29;99480.34;1699701;84;20146;-62
2022/08/14 11:50:53;;;;;;;5.70;2.30;;;;;;;27.40;43.43;99474.39;1680340;84;20954;-62
2022/08/14 11:53:29;;;;;;;7.75;1.92;;;;;;;27.31;43.50;99474.19;1699845;84;21521;-62
2022/08/14 11:56:04;;;;;;;7.30;1.95;;;;;;;27.19;43.69;99460.91;1700008;84;20915;-62
2022/08/14 11:58:35;;;;;;;5.53;2.05;;;;;;;27.12;43.92;99473.38;1693001;84;21529;-61
2022/08/14 12:01:06;;;;;;;4.80;2.17;;;;;;;27.13;44.10;99461.63;1681994;84;20912;-62